createdAt,value
2019-04-10T00:00:18.922Z,14.69
2019-04-10T00:01:17.435Z,14.7
2019-04-10T00:02:15.892Z,14.75
2019-04-10T00:03:25.432Z,14.77
2019-04-10T00:04:13.110Z,14.83
2019-04-10T00:05:11.793Z,14.77
2019-04-10T00:06:10.401Z,14.86
2019-04-10T00:07:14.864Z,14.91
2019-04-10T00:08:08.188Z,14.91
2019-04-10T00:09:06.481Z,14.89
2019-04-10T00:10:05.562Z,14.78
2019-04-10T00:11:04.714Z,14.88
2019-04-10T00:12:02.558Z,14.81
2019-04-10T00:13:02.366Z,14.73
2019-04-10T00:14:00.769Z,14.77
2019-04-10T00:14:58.814Z,14.78
2019-04-10T00:15:57.270Z,14.84
2019-04-10T00:16:56.402Z,14.81
2019-04-10T00:17:55.654Z,14.8
2019-04-10T00:18:53.960Z,14.75
2019-04-10T00:19:52.181Z,14.81
2019-04-10T00:20:51.085Z,14.83
2019-04-10T00:21:49.487Z,14.86
2019-04-10T00:22:48.630Z,14.98
2019-04-10T00:23:47.058Z,14.94
2019-04-10T00:24:46.240Z,14.88
2019-04-10T00:25:44.040Z,14.88
2019-04-10T00:26:42.788Z,14.77
2019-04-10T00:27:41.348Z,14.75
2019-04-10T00:28:39.967Z,14.69
2019-04-10T00:29:38.516Z,14.69
2019-04-10T00:30:37.533Z,14.72
2019-04-10T00:31:35.637Z,14.8
2019-04-10T00:32:34.302Z,14.84
2019-04-10T00:33:33.158Z,14.84
2019-04-10T00:34:31.881Z,14.8
2019-04-10T00:35:30.453Z,14.73
2019-04-10T00:36:29.067Z,14.73
2019-04-10T00:37:30.214Z,14.64
2019-04-10T00:38:26.269Z,14.58
2019-04-10T00:39:24.888Z,14.62
2019-04-10T00:40:23.663Z,14.62
2019-04-10T00:41:22.043Z,14.69
2019-04-10T00:42:21.045Z,14.88
2019-04-10T00:43:19.485Z,14.65
2019-04-10T00:44:18.067Z,14.61
2019-04-10T00:45:17.463Z,14.73
2019-04-10T00:46:15.733Z,14.35
2019-04-10T00:47:14.637Z,14.45
2019-04-10T00:48:12.566Z,14.43
2019-04-10T00:49:11.456Z,14.5
2019-04-10T00:50:10.416Z,14.42
2019-04-10T00:51:08.846Z,14.46
2019-04-10T00:52:07.976Z,14.55
2019-04-10T00:53:05.856Z,14.46
2019-04-10T00:54:05.590Z,14.52
2019-04-10T00:55:03.602Z,14.4
2019-04-10T00:56:02.001Z,14.35
2019-04-10T00:57:01.040Z,14.29
2019-04-10T00:57:59.309Z,14.21
2019-04-10T00:58:58.027Z,14.27
2019-04-10T00:59:56.898Z,14.46
2019-04-10T01:00:55.446Z,14.25
2019-04-10T01:01:54.287Z,14.45
2019-04-10T01:02:53.322Z,14.37
2019-04-10T01:03:51.465Z,14.47
2019-04-10T01:04:50.869Z,14.46
2019-04-10T01:05:49.196Z,14.25
2019-04-10T01:06:48.391Z,14.35
2019-04-10T01:07:47.079Z,14.4
2019-04-10T01:08:45.065Z,14.27
2019-04-10T01:09:43.800Z,14.35
2019-04-10T01:10:42.344Z,14.37
2019-04-10T01:11:41.379Z,14.28
2019-04-10T01:12:40.499Z,14.09
2019-04-10T01:13:38.432Z,14.2
2019-04-10T01:14:38.038Z,14.07
2019-04-10T01:15:36.427Z,14.1
2019-04-10T01:16:35.293Z,14.17
2019-04-10T01:17:33.368Z,14.22
2019-04-10T01:18:32.156Z,14.28
2019-04-10T01:19:30.588Z,14.21
2019-04-10T01:20:29.369Z,14.14
2019-04-10T01:21:28.434Z,14.12
2019-04-10T01:22:27.466Z,14.29
2019-04-10T01:23:25.271Z,14.15
2019-04-10T01:24:23.857Z,14.17
2019-04-10T01:25:22.573Z,14.21
2019-04-10T01:26:21.225Z,14.24
2019-04-10T01:27:20.044Z,14.25
2019-04-10T01:28:18.287Z,14.25
2019-04-10T01:29:17.557Z,14.22
2019-04-10T01:30:15.898Z,14.22
2019-04-10T01:31:15.084Z,14.28
2019-04-10T01:32:12.937Z,14.27
2019-04-10T01:33:12.405Z,14.06
2019-04-10T01:34:10.155Z,14.17
2019-04-10T01:35:09.895Z,14.1
2019-04-10T01:36:07.668Z,14.2
2019-04-10T01:37:06.269Z,14.21
2019-04-10T01:38:06.365Z,14.24
2019-04-10T01:39:04.127Z,14.17
2019-04-10T01:40:02.585Z,14.29
2019-04-10T01:41:01.532Z,14.24
2019-04-10T01:42:00.570Z,14
2019-04-10T01:43:06.574Z,14.04
2019-04-10T01:43:57.362Z,14.04
2019-04-10T01:44:55.656Z,14.2
2019-04-10T01:45:54.391Z,14.1
2019-04-10T01:46:53.595Z,14.09
2019-04-10T01:47:53.276Z,13.82
2019-04-10T01:48:51.319Z,13.85
2019-04-10T01:49:50.301Z,13.78
2019-04-10T01:50:48.225Z,13.88
2019-04-10T01:51:47.665Z,13.84
2019-04-10T01:52:45.768Z,13.97
2019-04-10T01:53:44.538Z,14.06
2019-04-10T01:54:45.502Z,14.1
2019-04-10T01:55:42.926Z,13.88
2019-04-10T01:56:40.480Z,13.87
2019-04-10T01:57:39.154Z,13.82
2019-04-10T01:58:37.734Z,13.87
2019-04-10T01:59:36.451Z,13.88
2019-04-10T02:00:35.439Z,13.97
2019-04-10T02:01:34.637Z,14.03
2019-04-10T02:02:33.414Z,13.97
2019-04-10T02:03:31.338Z,14
2019-04-10T02:04:30.977Z,14.14
2019-04-10T02:05:28.659Z,14.2
2019-04-10T02:06:27.449Z,14.2
2019-04-10T02:07:26.453Z,14.12
2019-04-10T02:08:25.659Z,14.15
2019-04-10T02:09:23.421Z,14.18
2019-04-10T02:10:21.653Z,14.29
2019-04-10T02:11:20.367Z,14.33
2019-04-10T02:12:19.142Z,14.29
2019-04-10T02:13:17.812Z,14.27
2019-04-10T02:14:16.450Z,14.24
2019-04-10T02:15:15.865Z,14.14
2019-04-10T02:16:14.396Z,14.15
2019-04-10T02:17:12.593Z,14.18
2019-04-10T02:18:10.988Z,14.18
2019-04-10T02:19:10.070Z,14.15
2019-04-10T02:20:08.120Z,14.07
2019-04-10T02:21:07.496Z,14.14
2019-04-10T02:22:06.269Z,14.28
2019-04-10T02:23:04.000Z,14.17
2019-04-10T02:24:02.914Z,14.17
2019-04-10T02:25:01.194Z,14.2
2019-04-10T02:25:59.812Z,14.09
2019-04-10T02:26:58.495Z,14.03
2019-04-10T02:27:58.506Z,14.03
2019-04-10T02:28:56.062Z,14.02
2019-04-10T02:29:55.707Z,14.04
2019-04-10T02:32:36.908Z,14.03
2019-04-10T02:33:33.751Z,14.07
2019-04-10T02:34:32.704Z,14.18
2019-04-10T02:35:31.532Z,14.09
2019-04-10T02:36:31.450Z,14.14
2019-04-10T02:37:28.512Z,14.15
2019-04-10T02:38:42.861Z,14.18
2019-04-10T02:39:34.020Z,14.07
2019-04-10T02:40:25.490Z,14.07
2019-04-10T02:50:55.781Z,14.09
2019-04-10T02:51:54.973Z,14.09
2019-04-10T02:52:54.774Z,14.02
2019-04-10T02:53:53.244Z,14.07
2019-04-10T02:54:51.054Z,14.06
2019-04-10T02:55:49.451Z,14.09
2019-04-10T02:56:49.475Z,14.1
2019-04-10T02:57:46.685Z,14.07
2019-04-10T03:00:05.330Z,13.92
2019-04-10T03:01:03.104Z,13.89
2019-04-10T03:02:02.321Z,13.85
2019-04-10T03:03:01.184Z,13.89
2019-04-10T03:03:59.197Z,13.99
2019-04-10T03:04:57.487Z,13.88
2019-04-10T03:05:56.526Z,14
2019-04-10T03:06:55.467Z,13.92
2019-04-10T03:07:53.003Z,14.03
2019-04-10T03:09:06.938Z,13.82
2019-04-10T03:10:01.744Z,13.84
2019-04-10T03:10:54.223Z,13.89
2019-04-10T03:11:47.840Z,13.79
2019-04-10T03:12:48.130Z,13.88
2019-04-10T03:13:45.289Z,13.96
2019-04-10T03:14:45.791Z,13.85
2019-04-10T03:15:43.395Z,13.78
2019-04-10T03:16:41.739Z,13.78
2019-04-10T03:17:40.050Z,13.79
2019-04-10T03:18:39.076Z,13.69
2019-04-10T03:19:37.742Z,13.71
2019-04-10T03:20:35.597Z,13.77
2019-04-10T03:21:35.329Z,13.79
2019-04-10T03:22:33.156Z,13.89
2019-04-10T03:23:31.728Z,14.02
2019-04-10T03:24:31.474Z,14.04
2019-04-10T03:25:29.117Z,14.15
2019-04-10T03:26:27.921Z,14.14
2019-04-10T03:27:26.320Z,14.09
2019-04-10T03:28:25.011Z,14.09
2019-04-10T03:29:24.039Z,14.03
2019-04-10T03:30:23.324Z,13.82
2019-04-10T03:31:22.880Z,13.84
2019-04-10T03:32:21.082Z,13.75
2019-04-10T03:33:21.722Z,13.87
2019-04-10T03:34:20.753Z,13.92
2019-04-10T03:35:16.702Z,13.89
2019-04-10T03:36:15.594Z,13.89
2019-04-10T03:37:13.544Z,13.84
2019-04-10T03:38:12.229Z,13.91
2019-04-10T03:39:10.930Z,13.97
2019-04-10T03:40:09.659Z,13.99
2019-04-10T03:41:08.422Z,13.92
2019-04-10T03:42:07.088Z,14
2019-04-10T03:43:05.814Z,14
2019-04-10T03:44:04.595Z,13.99
2019-04-10T03:45:03.386Z,14
2019-04-10T03:46:01.965Z,13.92
2019-04-10T03:47:00.811Z,13.81
2019-04-10T03:47:59.965Z,13.95
2019-04-10T03:48:57.936Z,13.82
2019-04-10T03:49:56.584Z,13.85
2019-04-10T03:50:56.245Z,13.88
2019-04-10T03:51:54.567Z,13.87
2019-04-10T03:52:53.696Z,13.88
2019-04-10T03:53:51.289Z,13.95
2019-04-10T03:54:49.960Z,13.89
2019-04-10T03:55:49.398Z,13.82
2019-04-10T03:56:47.863Z,13.89
2019-04-10T03:57:46.866Z,13.96
2019-04-10T03:58:44.634Z,14.07
2019-04-10T03:59:43.366Z,13.99
2019-04-10T04:00:42.509Z,14.04
2019-04-10T04:01:40.922Z,14.1
2019-04-10T04:02:40.002Z,14.18
2019-04-10T04:03:37.575Z,14.09
2019-04-10T04:04:36.094Z,14.18
2019-04-10T04:05:34.959Z,14.17
2019-04-10T04:06:33.483Z,14.21
2019-04-10T04:07:32.610Z,14.22
2019-04-10T04:08:31.724Z,14.2
2019-04-10T04:11:11.448Z,13.99
2019-04-10T04:12:10.512Z,14.07
2019-04-10T04:13:09.061Z,13.89
2019-04-10T04:14:07.998Z,13.82
2019-04-10T04:15:05.776Z,13.73
2019-04-10T04:16:04.386Z,13.79
2019-04-10T04:17:03.827Z,13.66
2019-04-10T04:18:02.492Z,13.62
2019-04-10T04:19:00.108Z,13.66
2019-04-10T04:19:58.862Z,13.67
2019-04-10T04:20:57.345Z,13.59
2019-04-10T04:21:56.363Z,13.57
2019-04-10T04:22:54.869Z,13.54
2019-04-10T04:23:53.330Z,13.57
2019-04-10T04:24:52.372Z,13.63
2019-04-10T04:25:50.457Z,13.62
2019-04-10T04:26:49.058Z,13.52
2019-04-10T04:27:47.670Z,13.51
2019-04-10T04:28:46.276Z,13.67
2019-04-10T04:29:45.398Z,13.62
2019-04-10T04:30:43.507Z,13.66
2019-04-10T04:31:42.062Z,13.59
2019-04-10T04:32:41.771Z,13.51
2019-04-10T04:33:39.631Z,13.63
2019-04-10T04:34:38.843Z,13.66
2019-04-10T04:35:36.776Z,13.7
2019-04-10T04:36:35.348Z,13.64
2019-04-10T04:37:33.888Z,13.63
2019-04-10T04:38:32.411Z,13.57
2019-04-10T04:39:31.506Z,13.55
2019-04-10T04:40:30.006Z,13.41
2019-04-10T04:41:28.139Z,13.41
2019-04-10T04:42:26.892Z,13.46
2019-04-10T04:43:25.527Z,13.41
2019-04-10T04:44:24.167Z,13.23
2019-04-10T04:45:23.534Z,13.19
2019-04-10T04:46:21.878Z,13.08
2019-04-10T04:47:20.725Z,13.17
2019-04-10T04:48:19.591Z,13.23
2019-04-10T04:49:18.195Z,13.17
2019-04-10T04:50:17.797Z,13.36
2019-04-10T04:51:15.511Z,13.22
2019-04-10T04:52:14.307Z,13.11
2019-04-10T04:53:12.937Z,13.23
2019-04-10T04:54:11.571Z,13.19
2019-04-10T04:55:10.143Z,13.14
2019-04-10T04:56:09.469Z,13.15
2019-04-10T04:57:07.310Z,13.17
2019-04-10T04:58:06.189Z,13.07
2019-04-10T04:59:04.559Z,13.07
2019-04-10T05:00:03.347Z,13.08
2019-04-10T05:01:02.124Z,13.2
2019-04-10T05:02:01.261Z,13.14
2019-04-10T05:02:59.778Z,13.12
2019-04-10T05:03:58.230Z,13.1
2019-04-10T05:04:56.493Z,13.03
2019-04-10T05:05:56.141Z,13.11
2019-04-10T05:06:53.707Z,13.08
2019-04-10T05:07:59.063Z,13.23
2019-04-10T05:08:51.068Z,13.36
2019-04-10T05:09:50.414Z,13.11
2019-04-10T05:10:48.208Z,13.26
2019-04-10T05:11:46.945Z,13.08
2019-04-10T05:12:45.427Z,13.26
2019-04-10T05:13:43.976Z,13.29
2019-04-10T05:14:42.707Z,13.3
2019-04-10T05:15:41.529Z,13.36
2019-04-10T05:18:21.582Z,13.33
2019-04-10T05:20:21.312Z,13.25
2019-04-10T05:21:19.793Z,13.23
2019-04-10T05:22:18.734Z,13.42
2019-04-10T05:23:18.038Z,13.26
2019-04-10T05:24:15.892Z,13.33
2019-04-10T05:25:14.384Z,13.38
2019-04-10T05:26:12.963Z,13.29
2019-04-10T05:27:11.946Z,13.25
2019-04-10T05:28:11.240Z,13.1
2019-04-10T05:29:09.120Z,13.12
2019-04-10T05:30:08.458Z,13.2
2019-04-10T05:31:06.724Z,13.22
2019-04-10T05:32:05.141Z,13.11
2019-04-10T05:33:04.053Z,13.1
2019-04-10T05:34:03.024Z,13.26
2019-04-10T05:35:00.898Z,13.42
2019-04-10T05:35:59.278Z,13.23
2019-04-10T05:36:58.547Z,13.23
2019-04-10T05:38:57.796Z,13.33
2019-04-10T05:39:55.980Z,13.54
2019-04-10T05:40:55.155Z,13.77
2019-04-10T05:41:53.213Z,13.6
2019-04-10T05:42:51.745Z,13.6
2019-04-10T05:43:50.929Z,13.71
2019-04-10T05:44:50.131Z,13.57
2019-04-10T05:45:48.598Z,13.52
2019-04-10T05:46:47.497Z,13.54
2019-04-10T05:47:46.445Z,13.55
2019-04-10T05:48:44.137Z,13.57
2019-04-10T05:49:42.541Z,13.52
2019-04-10T05:50:52.917Z,13.51
2019-04-10T05:51:40.056Z,13.55
2019-04-10T05:52:39.569Z,13.52
2019-04-10T05:53:37.585Z,13.59
2019-04-10T05:54:36.090Z,13.52
2019-04-10T05:55:34.721Z,13.49
2019-04-10T05:56:34.307Z,13.54
2019-04-10T05:57:32.864Z,13.59
2019-04-10T05:58:31.479Z,13.55
2019-04-10T05:59:30.100Z,13.55
2019-04-10T06:00:29.038Z,13.54
2019-04-10T06:01:34.848Z,13.57
2019-04-10T06:02:25.544Z,13.51
2019-04-10T06:03:24.726Z,13.41
2019-04-10T06:04:22.768Z,13.57
2019-04-10T06:05:22.323Z,13.55
2019-04-10T06:06:20.126Z,13.88
2019-04-10T06:07:19.138Z,13.78
2019-04-10T06:08:18.119Z,14.04
2019-04-10T06:09:16.320Z,14.25
2019-04-10T06:10:15.432Z,14.72
2019-04-10T06:11:13.692Z,14.61
2019-04-10T06:12:12.009Z,14.35
2019-04-10T06:13:10.933Z,14.51
2019-04-10T06:14:10.104Z,14.35
2019-04-10T06:15:07.664Z,14.17
2019-04-10T06:16:06.245Z,14.61
2019-04-10T06:17:05.929Z,14.17
2019-04-10T06:18:03.495Z,14.06
2019-04-10T06:19:02.064Z,13.81
2019-04-10T06:20:00.827Z,13.81
2019-04-10T06:20:59.331Z,13.81
2019-04-10T06:21:57.896Z,13.89
2019-04-10T06:22:56.558Z,13.84
2019-04-10T06:23:56.666Z,14.14
2019-04-10T06:24:54.372Z,14.4
2019-04-10T06:25:53.867Z,14.47
2019-04-10T06:26:52.012Z,14.27
2019-04-10T06:27:50.551Z,14.18
2019-04-10T06:28:48.627Z,14.06
2019-04-10T06:29:47.633Z,14.06
2019-04-10T06:30:45.696Z,13.95
2019-04-10T06:31:45.066Z,14.24
2019-04-10T06:32:43.258Z,14.2
2019-04-10T06:33:42.452Z,14.03
2019-04-10T06:34:40.850Z,13.91
2019-04-10T06:35:39.517Z,13.91
2019-04-10T06:36:37.552Z,13.82
2019-04-10T06:37:35.913Z,13.87
2019-04-10T06:38:35.047Z,13.89
2019-04-10T06:39:33.374Z,13.91
2019-04-10T06:40:31.953Z,13.97
2019-04-10T06:41:30.574Z,13.99
2019-04-10T06:42:29.539Z,14.17
2019-04-10T06:43:28.685Z,14.12
2019-04-10T06:44:26.411Z,14.15
2019-04-10T06:45:25.942Z,14.07
2019-04-10T06:46:24.304Z,14.03
2019-04-10T06:47:22.570Z,14.18
2019-04-10T06:48:21.174Z,14.09
2019-04-10T06:49:20.624Z,14.02
2019-04-10T06:50:18.965Z,13.95
2019-04-10T06:51:18.809Z,14
2019-04-10T06:52:16.658Z,14.35
2019-04-10T06:53:16.085Z,14.27
2019-04-10T06:54:14.309Z,14.28
2019-04-10T06:55:11.778Z,14.27
2019-04-10T06:56:11.251Z,14.24
2019-04-10T06:57:08.864Z,14.33
2019-04-10T06:58:07.602Z,14.5
2019-04-10T06:59:06.636Z,14.39
2019-04-10T07:00:04.691Z,14.36
2019-04-10T07:01:04.118Z,14.25
2019-04-10T07:02:12.670Z,14.37
2019-04-10T07:03:00.950Z,14.55
2019-04-10T07:04:03.875Z,14.36
2019-04-10T07:05:04.659Z,14.37
2019-04-10T07:06:05.768Z,14.35
2019-04-10T07:07:00.613Z,14.39
2019-04-10T07:07:58.760Z,14.89
2019-04-10T07:08:53.254Z,14.91
2019-04-10T07:09:52.285Z,15.2
2019-04-10T07:10:54.544Z,15.07
2019-04-10T07:11:52.452Z,14.86
2019-04-10T07:12:47.757Z,15.01
2019-04-10T07:13:45.533Z,14.86
2019-04-10T07:14:47.218Z,15.03
2019-04-10T07:15:44.237Z,15.17
2019-04-10T07:16:42.161Z,15.07
2019-04-10T07:17:41.602Z,15.11
2019-04-10T07:18:39.659Z,14.91
2019-04-10T07:19:37.049Z,14.89
2019-04-10T07:20:35.765Z,14.72
2019-04-10T07:21:35.907Z,14.7
2019-04-10T07:22:33.164Z,14.6
2019-04-10T07:23:32.304Z,14.73
2019-04-10T07:24:34.265Z,14.88
2019-04-10T07:25:29.818Z,14.8
2019-04-10T07:26:35.319Z,14.94
2019-04-10T07:27:25.851Z,15.01
2019-04-10T07:28:24.364Z,15.06
2019-04-10T07:29:26.583Z,14.98
2019-04-10T07:30:24.011Z,14.88
2019-04-10T07:31:21.100Z,15.07
2019-04-10T07:34:01.287Z,15.03
2019-04-10T07:35:00.238Z,15.1
2019-04-10T07:35:57.555Z,15.2
2019-04-10T07:36:56.167Z,15.16
2019-04-10T07:37:56.892Z,15.25
2019-04-10T07:38:55.649Z,15.25
2019-04-10T08:02:25.549Z,15.34
2019-04-10T08:03:24.851Z,15.41
2019-04-10T08:04:22.660Z,15.2
2019-04-10T08:05:21.384Z,15.38
2019-04-10T08:06:20.022Z,15.53
2019-04-10T08:07:26.543Z,15.59
2019-04-10T08:08:17.213Z,15.64
2019-04-10T08:09:16.698Z,15.56
2019-04-10T08:10:15.540Z,15.71
2019-04-10T08:11:13.334Z,15.94
2019-04-10T08:12:12.798Z,15.97
2019-04-10T08:13:10.220Z,16.11
2019-04-10T08:14:54.034Z,16.08
2019-04-10T08:15:52.306Z,16.17
2019-04-10T08:16:51.852Z,16.24
2019-04-10T08:17:51.143Z,16.27
2019-04-10T08:18:48.106Z,16.25
2019-04-10T08:19:46.676Z,16.04
2019-04-10T08:20:46.404Z,16.05
2019-04-10T08:21:44.346Z,15.82
2019-04-10T08:22:42.857Z,15.69
2019-04-10T08:23:42.337Z,15.92
2019-04-10T08:24:40.603Z,15.86
2019-04-10T08:25:39.366Z,15.94
2019-04-10T08:26:38.784Z,16.04
2019-04-10T08:27:36.522Z,16.31
2019-04-10T08:28:35.206Z,16.46
2019-04-10T08:29:34.371Z,15.92
2019-04-10T08:30:32.615Z,15.83
2019-04-10T08:31:31.198Z,16.11
2019-04-10T08:32:30.031Z,16.2
2019-04-10T08:33:28.371Z,16.24
2019-04-10T08:34:27.972Z,16.05
2019-04-10T08:35:25.543Z,16.15
2019-04-10T08:36:24.093Z,16.23
2019-04-10T08:37:22.636Z,16.12
2019-04-10T08:38:21.769Z,16.08
2019-04-10T08:39:29.906Z,16.15
2019-04-10T08:40:19.072Z,16.12
2019-04-10T08:41:17.255Z,16.15
2019-04-10T08:44:09.131Z,16.3
2019-04-10T08:45:07.700Z,16.3
2019-04-10T08:46:06.314Z,16.24
2019-04-10T08:47:04.937Z,16.39
2019-04-10T08:48:05.780Z,16.67
2019-04-10T08:49:04.220Z,16.45
2019-04-10T09:11:55.901Z,16.53
2019-04-10T09:12:54.853Z,16.57
2019-04-10T09:13:53.097Z,16.63
2019-04-10T09:14:51.809Z,16.64
2019-04-10T09:15:50.144Z,16.68
2019-04-10T09:16:48.984Z,16.73
2019-04-10T09:17:47.298Z,16.88
2019-04-10T09:18:45.850Z,16.76
2019-04-10T09:19:44.422Z,16.98
2019-04-10T09:20:43.096Z,17.15
2019-04-10T09:21:41.774Z,16.85
2019-04-10T09:22:57.808Z,16.94
2019-04-10T09:23:45.531Z,16.91
2019-04-10T09:24:38.380Z,17.03
2019-04-10T09:25:37.182Z,16.94
2019-04-10T09:26:36.101Z,17.25
2019-04-10T09:27:33.737Z,17.07
2019-04-10T09:28:32.748Z,17.15
2019-04-10T09:29:31.947Z,17.15
2019-04-10T09:30:30.901Z,16.83
2019-04-10T09:31:29.443Z,16.98
2019-04-10T09:32:28.350Z,16.82
2019-04-10T09:33:28.074Z,16.97
2019-04-10T09:34:25.572Z,17.08
2019-04-10T09:35:24.546Z,17.38
2019-04-10T09:36:21.912Z,17.21
2019-04-10T09:37:20.460Z,17.12
2019-04-10T09:38:19.020Z,17.08
2019-04-10T09:39:17.606Z,17.38
2019-04-10T09:40:16.372Z,17.26
2019-04-10T09:41:14.819Z,17.28
2019-04-10T09:42:13.358Z,17.11
2019-04-10T09:43:12.007Z,17.01
2019-04-10T09:44:10.782Z,17.18
2019-04-10T09:45:09.531Z,17.38
2019-04-10T09:46:08.396Z,17.56
2019-04-10T09:47:07.720Z,17.62
2019-04-10T09:48:06.351Z,17.19
2019-04-10T09:49:05.365Z,17.26
2019-04-10T09:50:02.595Z,16.97
2019-04-10T09:51:01.372Z,17.01
2019-04-10T09:52:00.657Z,16.94
2019-04-10T09:52:59.902Z,16.76
2019-04-10T09:53:57.456Z,16.88
2019-04-10T09:54:56.134Z,17.07
2019-04-10T09:55:54.704Z,17.34
2019-04-10T09:56:53.434Z,17.51
2019-04-10T09:57:52.231Z,17.48
2019-04-10T09:58:51.860Z,17.49
2019-04-10T09:59:49.444Z,17.48
2019-04-10T10:00:48.261Z,17.18
2019-04-10T10:01:46.657Z,17.08
2019-04-10T10:02:45.521Z,17.23
2019-04-10T10:03:44.449Z,17.25
2019-04-10T10:04:43.783Z,17.43
2019-04-10T10:05:42.452Z,17.4
2019-04-10T10:09:20.493Z,16.88
2019-04-10T10:10:19.191Z,16.93
2019-04-10T10:37:06.926Z,16.89
2019-04-10T10:38:05.812Z,17.08
2019-04-10T10:39:10.506Z,17.11
2019-04-10T10:40:03.444Z,16.98
2019-04-10T10:41:01.766Z,16.81
2019-04-10T10:42:00.373Z,16.88
2019-04-10T10:43:00.205Z,17
2019-04-10T10:43:58.448Z,16.96
2019-04-10T10:44:56.436Z,17.04
2019-04-10T10:45:55.420Z,16.81
2019-04-10T10:46:53.826Z,16.76
2019-04-10T10:47:52.639Z,16.81
2019-04-10T10:48:51.675Z,16.98
2019-04-10T10:49:50.786Z,17.11
2019-04-10T10:52:31.137Z,17.21
2019-04-10T10:53:28.826Z,16.98
2019-04-10T10:54:27.848Z,17.08
2019-04-10T10:55:26.101Z,17.01
2019-04-10T10:56:25.026Z,17.06
2019-04-10T10:57:24.769Z,17.23
2019-04-10T10:58:22.252Z,17.48
2019-04-10T10:59:21.795Z,17.58
2019-04-10T11:00:19.481Z,17.59
2019-04-10T11:01:18.108Z,17.56
2019-04-10T11:02:17.084Z,17.41
2019-04-10T11:03:16.154Z,17.19
2019-04-10T11:04:15.031Z,16.98
2019-04-10T11:05:12.805Z,16.79
2019-04-10T11:06:11.527Z,16.73
2019-04-10T11:07:10.829Z,16.91
2019-04-10T11:08:08.975Z,17.11
2019-04-10T11:09:08.328Z,17.03
2019-04-10T11:10:06.915Z,17.12
2019-04-10T11:11:06.140Z,17.11
2019-04-10T11:12:04.686Z,16.82
2019-04-10T11:13:02.371Z,16.85
2019-04-10T11:14:01.222Z,16.97
2019-04-10T11:21:08.808Z,16.89
2019-04-10T11:22:03.364Z,16.78
2019-04-10T11:23:01.985Z,16.91
2019-04-10T11:24:00.912Z,16.96
2019-04-10T11:25:00.173Z,16.88
2019-04-10T11:25:57.816Z,16.97
2019-04-10T11:26:56.440Z,16.97
2019-04-10T11:27:56.434Z,16.79
2019-04-10T11:28:55.682Z,16.93
2019-04-10T11:29:53.239Z,16.94
2019-04-10T11:30:51.401Z,16.94
2019-04-10T11:31:50.118Z,16.94
2019-04-10T11:32:48.834Z,16.97
2019-04-10T11:33:50.172Z,16.79
2019-04-10T11:34:46.617Z,16.82
2019-04-10T11:35:45.866Z,16.86
2019-04-10T11:36:44.043Z,16.75
2019-04-10T11:37:45.349Z,16.68
2019-04-10T11:38:42.788Z,16.81
2019-04-10T11:39:43.187Z,16.79
2019-04-10T11:40:38.874Z,17.03
2019-04-10T11:41:37.387Z,17.12
2019-04-10T11:42:37.141Z,17.06
2019-04-10T11:43:36.137Z,17.08
2019-04-10T11:44:33.594Z,17.14
2019-04-10T11:45:39.664Z,16.93
2019-04-10T11:46:32.076Z,16.86
2019-04-10T11:47:29.186Z,16.91
2019-04-10T11:48:29.077Z,16.89
2019-04-10T11:49:27.626Z,17.06
2019-04-10T11:50:25.594Z,16.79
2019-04-10T11:51:26.303Z,17
2019-04-10T11:54:05.175Z,17.01
2019-04-10T11:56:05.093Z,16.98
2019-04-10T11:57:03.129Z,16.94
2019-04-10T11:57:59.949Z,17.04
2019-04-10T11:58:59.159Z,17.08
2019-04-10T11:59:56.937Z,17.11
2019-04-10T12:02:37.100Z,17.22
2019-04-10T12:03:37.025Z,17.22
2019-04-10T12:04:44.889Z,17.22
2019-04-10T12:05:32.702Z,16.94
2019-04-10T12:06:33.771Z,16.75
2019-04-10T12:07:59.827Z,16.82
2019-04-10T12:08:47.278Z,16.82
2019-04-10T12:10:44.019Z,16.86
2019-04-10T12:11:24.857Z,16.5
2019-04-10T12:12:23.761Z,16.7
2019-04-10T12:13:22.132Z,16.68
2019-04-10T12:14:21.550Z,16.83
2019-04-10T12:15:20.489Z,16.76
2019-04-10T12:16:18.134Z,16.86
2019-04-10T12:17:17.879Z,16.88
2019-04-10T12:18:16.125Z,16.88
2019-04-10T12:19:14.935Z,16.91
2019-04-10T12:20:13.147Z,16.98
2019-04-10T12:21:11.503Z,17.11
2019-04-10T12:22:10.038Z,16.96
2019-04-10T12:30:43.606Z,16.82
2019-04-10T12:31:41.920Z,16.81
2019-04-10T12:32:41.045Z,16.81
2019-04-10T12:33:38.673Z,16.76
2019-04-10T12:34:37.314Z,16.82
2019-04-10T12:35:36.111Z,16.82
2019-04-10T12:36:34.557Z,16.68
2019-04-10T12:37:33.558Z,16.78
2019-04-10T12:38:32.167Z,16.81
2019-04-10T12:39:30.901Z,16.83
2019-04-10T12:40:29.418Z,16.85
2019-04-10T12:41:28.226Z,16.79
2019-04-10T12:42:28.124Z,16.75
2019-04-10T12:43:25.989Z,16.81
2019-04-10T12:44:25.456Z,16.67
2019-04-10T12:45:24.206Z,16.56
2019-04-10T12:46:21.843Z,16.52
2019-04-10T12:47:20.417Z,16.42
2019-04-10T12:48:19.180Z,16.48
2019-04-10T12:49:19.165Z,16.43
2019-04-10T12:50:16.783Z,16.56
2019-04-10T12:51:15.513Z,16.56
2019-04-10T12:53:23.417Z,16.66
2019-04-10T12:54:22.206Z,16.76
2019-04-10T12:55:21.079Z,16.78
2019-04-10T12:56:19.932Z,16.78
2019-04-10T12:57:18.924Z,16.71
2019-04-10T12:58:18.958Z,16.82
2019-04-10T12:59:17.326Z,16.79
2019-04-10T13:00:15.964Z,16.86
2019-04-10T13:01:14.242Z,16.85
2019-04-10T13:02:13.635Z,16.82
2019-04-10T13:03:11.341Z,16.75
2019-04-10T13:04:09.946Z,16.85
2019-04-10T13:05:09.142Z,16.79
2019-04-10T13:06:07.561Z,16.85
2019-04-10T13:07:07.364Z,16.73
2019-04-10T13:08:14.524Z,16.76
2019-04-10T13:09:09.136Z,16.7
2019-04-10T13:10:02.526Z,16.76
2019-04-10T13:13:46.247Z,16.63
2019-04-10T13:14:43.949Z,16.5
2019-04-10T13:15:43.524Z,16.63
2019-04-10T13:16:42.715Z,16.78
2019-04-10T13:17:40.725Z,16.82
2019-04-10T13:18:39.102Z,16.66
2019-04-10T13:19:37.675Z,16.76
2019-04-10T13:20:36.273Z,16.81
2019-04-10T13:21:34.945Z,16.89
2019-04-10T13:22:33.885Z,16.98
2019-04-10T13:23:33.016Z,17.04
2019-04-10T13:24:31.141Z,17.12
2019-04-10T13:25:30.194Z,17.21
2019-04-10T13:26:28.233Z,17.23
2019-04-10T13:27:26.886Z,17.16
2019-04-10T13:28:25.589Z,17.22
2019-04-10T13:29:24.498Z,17.26
2019-04-10T13:30:23.124Z,17.28
2019-04-10T13:31:21.733Z,17.31
2019-04-10T13:32:20.541Z,17.34
2019-04-10T13:33:19.047Z,17.21
2019-04-10T13:34:18.297Z,17.28
2019-04-10T13:42:07.243Z,16.96
2019-04-10T13:43:05.388Z,17.01
2019-04-10T13:45:45.846Z,17.01
2019-04-10T13:46:44.886Z,17.12
2019-04-10T13:47:42.924Z,17.01
2019-04-10T13:48:41.799Z,16.97
2019-04-10T13:49:40.193Z,16.79
2019-04-10T13:50:39.036Z,17.04
2019-04-10T13:51:37.423Z,17.04
2019-04-10T13:52:36.334Z,17.15
2019-04-10T13:53:34.572Z,17.06
2019-04-10T13:54:33.172Z,16.96
2019-04-10T13:55:32.649Z,16.91
2019-04-10T13:56:30.924Z,16.89
2019-04-10T13:57:29.373Z,16.76
2019-04-10T13:58:28.951Z,16.79
2019-04-10T13:59:27.248Z,16.97
2019-04-10T14:00:25.955Z,17.04
2019-04-10T14:01:25.257Z,17.12
2019-04-10T14:02:23.592Z,17.03
2019-04-10T14:03:22.640Z,16.96
2019-04-10T14:04:20.893Z,17.07
2019-04-10T14:05:19.927Z,16.81
2019-04-10T14:06:19.149Z,16.83
2019-04-10T14:07:17.659Z,16.83
2019-04-10T14:08:16.653Z,16.81
2019-04-10T14:09:28.366Z,16.85
2019-04-10T14:10:12.974Z,17.03
2019-04-10T14:11:11.711Z,16.98
2019-04-10T14:12:12.743Z,17.03
2019-04-10T14:13:09.389Z,17.07
2019-04-10T14:14:44.836Z,16.83
2019-04-10T14:15:44.254Z,16.71
2019-04-10T14:16:42.202Z,16.79
2019-04-10T14:17:41.713Z,16.97
2019-04-10T14:18:39.673Z,16.88
2019-04-10T14:19:39.397Z,16.89
2019-04-10T14:22:19.493Z,16.91
2019-04-10T14:23:18.084Z,16.76
2019-04-10T14:25:42.072Z,16.88
2019-04-10T14:26:46.278Z,17.07
2019-04-10T14:27:38.546Z,17.07
2019-04-10T14:31:34.237Z,17.03
2019-04-10T14:32:33.334Z,17.18
2019-04-10T14:33:30.856Z,17.11
2019-04-10T14:34:30.402Z,17
2019-04-10T14:35:29.410Z,17.11
2019-04-10T14:36:27.670Z,17.08
2019-04-10T14:37:25.376Z,17.04
2019-04-10T14:38:23.931Z,17.11
2019-04-10T14:39:22.875Z,16.88
2019-04-10T14:40:22.125Z,16.82
2019-04-10T14:41:20.013Z,16.94
2019-04-10T14:42:18.309Z,16.97
2019-04-10T14:43:16.809Z,16.98
2019-04-10T14:44:15.387Z,16.97
2019-04-10T14:45:14.114Z,16.76
2019-04-10T14:46:12.577Z,16.75
2019-04-10T14:47:13.316Z,16.82
2019-04-10T14:49:29.209Z,16.81
2019-04-10T14:50:26.663Z,16.78
2019-04-10T14:51:25.389Z,16.68
2019-04-10T14:52:23.959Z,16.82
2019-04-10T14:53:22.778Z,16.78
2019-04-10T14:54:21.796Z,16.86